Time;durP1;ratioP1;P1;durP2;ratioP2;P2;SDS_P1;SDS_P2;PMS_P1;PMS_P2;Temp;Humidity;BMP_temperature;BMP_pressure;BME280_temperature;BME280_humidity;BME280_pressure;Samples;Min_cycle;Max_cycle;Signal;HPM_P1;HPM_P2
2022/02/15 00:00:33;;;;;;;10.60;6.55;;;;;;;6.87;56.86;100630.81;5088638;28;20027;-78
2022/02/15 00:02:59;;;;;;;9.55;6.38;;;;;;;6.86;56.75;100623.88;5087604;28;20069;-77
2022/02/15 00:05:24;;;;;;;12.05;6.90;;;;;;;6.84;57.23;100625.13;5091531;28;20020;-77
2022/02/15 00:07:50;;;;;;;14.73;7.15;;;;;;;6.85;57.04;100632.91;5087630;27;20535;-77
2022/02/15 00:10:16;;;;;;;12.85;7.43;;;;;;;6.84;56.88;100636.59;5089528;28;20454;-77
2022/02/15 00:12:41;;;;;;;12.40;7.20;;;;;;;6.82;56.94;100641.34;5090369;28;20160;-77
2022/02/15 00:15:09;;;;;;;14.55;7.32;;;;;;;6.81;57.21;100638.88;5088316;28;20523;-77
2022/02/15 00:17:41;;;;;;;16.08;7.80;;;;;;;6.76;57.60;100631.56;5092126;28;20060;-79
2022/02/15 00:20:09;;;;;;;13.77;7.10;;;;;;;6.76;57.10;100639.56;5089917;28;20056;-77
2022/02/15 00:22:35;;;;;;;12.65;7.03;;;;;;;6.76;57.45;100628.91;5097689;28;20028;-77
2022/02/15 00:25:00;;;;;;;13.77;7.40;;;;;;;6.74;57.45;100627.50;5088023;28;20038;-77
2022/02/15 00:27:26;;;;;;;15.52;7.28;;;;;;;6.73;57.34;100625.88;5093218;28;20081;-78
2022/02/15 00:29:52;;;;;;;11.80;6.63;;;;;;;6.73;57.57;100624.03;5089439;28;20062;-77
2022/02/15 00:32:17;;;;;;;11.27;6.57;;;;;;;6.71;57.59;100627.97;5091811;28;20416;-77
2022/02/15 00:34:42;;;;;;;12.18;7.10;;;;;;;6.70;57.41;100623.69;5086937;28;20020;-78
2022/02/15 00:37:08;;;;;;;14.98;7.50;;;;;;;6.69;57.63;100632.72;5082655;28;20607;-77
2022/02/15 00:39:33;;;;;;;12.57;6.93;;;;;;;6.67;57.60;100635.59;5087191;28;20660;-77
2022/02/15 00:41:59;;;;;;;11.68;6.60;;;;;;;6.66;57.43;100631.31;5088342;28;20023;-77
2022/02/15 00:44:26;;;;;;;12.43;6.72;;;;;;;6.64;57.18;100628.88;5091848;28;20027;-77
2022/02/15 00:46:53;;;;;;;13.77;7.28;;;;;;;6.66;57.79;100631.31;5104146;28;20500;-77
2022/02/15 00:49:18;;;;;;;11.90;6.82;;;;;;;6.64;57.76;100642.19;5091108;28;20448;-77
2022/02/15 00:51:44;;;;;;;15.20;6.97;;;;;;;6.63;57.45;100635.22;5090475;28;20031;-77
2022/02/15 00:54:09;;;;;;;11.35;6.90;;;;;;;6.62;57.69;100638.09;5097502;28;20553;-77
2022/02/15 00:56:34;;;;;;;12.50;7.60;;;;;;;6.61;57.78;100634.63;5089029;28;20020;-77
2022/02/15 00:59:00;;;;;;;9.57;6.85;;;;;;;6.61;57.88;100641.81;5092379;28;20631;-77
2022/02/15 01:01:25;;;;;;;13.27;6.82;;;;;;;6.61;57.83;100631.97;5096960;28;20079;-77
2022/02/15 01:03:51;;;;;;;13.07;7.00;;;;;;;6.60;58.12;100642.84;5087859;28;20027;-77
2022/02/15 01:06:18;;;;;;;12.52;7.22;;;;;;;6.59;57.67;100638.56;5086954;28;20450;-77
2022/02/15 01:08:45;;;;;;;13.10;7.07;;;;;;;6.60;58.16;100645.50;5088731;28;20059;-77
2022/02/15 01:11:11;;;;;;;12.05;7.15;;;;;;;6.60;57.63;100645.50;5083166;28;20047;-77
2022/02/15 01:13:37;;;;;;;12.15;6.72;;;;;;;6.59;58.30;100646.53;5091803;28;20442;-77
2022/02/15 01:16:02;;;;;;;12.00;7.15;;;;;;;6.59;57.84;100647.34;5088234;28;20028;-77
2022/02/15 01:18:28;;;;;;;17.50;7.55;;;;;;;6.60;57.90;100650.81;5091490;28;20507;-78
2022/02/15 01:20:55;;;;;;;13.00;7.85;;;;;;;6.58;57.94;100648.38;5094492;28;20030;-77
2022/02/15 01:23:21;;;;;;;15.48;8.45;;;;;;;6.58;58.12;100643.06;5087878;28;20024;-77
2022/02/15 01:25:47;;;;;;;11.55;6.57;;;;;;;6.57;58.25;100638.78;5088073;28;20028;-77
2022/02/15 01:28:14;;;;;;;14.07;7.60;;;;;;;6.57;58.22;100635.31;5091165;28;20031;-77
2022/02/15 01:30:40;;;;;;;13.88;8.32;;;;;;;6.54;58.23;100636.56;5093145;28;20024;-77
2022/02/15 01:33:06;;;;;;;12.38;6.97;;;;;;;6.53;58.50;100634.94;5087708;28;20027;-77
2022/02/15 01:35:31;;;;;;;13.15;7.40;;;;;;;6.51;58.42;100637.03;5088402;28;20028;-78
2022/02/15 01:37:57;;;;;;;14.18;7.32;;;;;;;6.48;58.40;100642.81;5089969;28;20032;-77
2022/02/15 01:40:22;;;;;;;17.70;8.18;;;;;;;6.48;58.66;100631.34;5091951;28;20499;-78
2022/02/15 01:42:48;;;;;;;14.43;7.63;;;;;;;6.44;58.68;100636.28;5090864;28;20027;-77
2022/02/15 01:45:17;;;;;;;14.15;7.57;;;;;;;6.42;58.91;100633.03;5088964;28;20981;-79
2022/02/15 01:47:44;;;;;;;12.85;7.60;;;;;;;6.43;58.61;100633.84;5089372;28;20028;-77
2022/02/15 01:50:10;;;;;;;15.63;7.55;;;;;;;6.41;58.55;100631.41;5093321;28;20032;-77
2022/02/15 01:52:35;;;;;;;14.10;7.63;;;;;;;6.39;58.43;100630.81;5095872;28;20515;-77
2022/02/15 01:55:02;;;;;;;13.80;7.00;;;;;;;6.39;58.89;100632.66;5091980;28;20535;-77
2022/02/15 01:57:29;;;;;;;12.65;7.43;;;;;;;6.41;58.65;100633.25;5092131;28;20028;-77
2022/02/15 01:59:56;;;;;;;13.63;7.60;;;;;;;6.39;58.89;100628.16;5094925;28;20020;-77
2022/02/15 02:02:22;;;;;;;11.57;7.15;;;;;;;6.39;58.87;100630.81;5088055;28;20459;-78
2022/02/15 02:07:32;;;;;;;12.90;8.18;;;;;;;6.38;58.92;100625.72;5089520;28;20119;-78
2022/02/15 02:09:57;;;;;;;13.25;7.95;;;;;;;6.38;59.01;100628.38;5087420;28;20112;-77
2022/02/15 02:12:23;;;;;;;14.00;8.02;;;;;;;6.36;58.93;100621.44;5089619;28;21821;-77
2022/02/15 02:15:04;;;;;;;13.55;7.65;;;;;;;6.30;59.19;100632.97;5089970;28;20541;-77
2022/02/15 02:17:30;;;;;;;15.15;8.13;;;;;;;6.33;58.90;100640.50;5096342;28;20115;-77
2022/02/15 02:19:56;;;;;;;11.73;7.95;;;;;;;6.34;58.99;100633.34;5088648;28;20441;-77
2022/02/15 02:22:24;;;;;;;15.82;8.23;;;;;;;6.34;59.30;100633.34;5085239;28;20107;-77
2022/02/15 02:24:51;;;;;;;14.40;7.82;;;;;;;6.33;59.05;100637.03;5088402;28;20020;-77
2022/02/15 02:27:22;;;;;;;13.73;7.43;;;;;;;6.30;59.01;100630.31;5088477;28;20074;-77
2022/02/15 02:29:50;;;;;;;13.93;7.72;;;;;;;6.32;58.91;100638.06;5087860;28;20492;-78
2022/02/15 02:32:18;;;;;;;14.93;7.93;;;;;;;6.30;59.22;100646.28;5082803;28;20028;-77
2022/02/15 02:34:44;;;;;;;15.20;8.00;;;;;;;6.28;59.19;100642.19;5096388;28;20027;-77
2022/02/15 02:37:13;;;;;;;14.23;7.93;;;;;;;6.28;59.57;100642.19;5086333;28;20026;-77
2022/02/15 02:39:40;;;;;;;12.20;7.70;;;;;;;6.26;59.36;100639.75;5088091;28;20038;-77
2022/02/15 02:42:05;;;;;;;15.98;8.57;;;;;;;6.25;59.34;100645.31;5088166;28;20062;-77
2022/02/15 02:44:31;;;;;;;13.80;7.03;;;;;;;6.26;59.39;100644.28;5097714;27;20063;-78
2022/02/15 02:46:56;;;;;;;13.45;7.70;;;;;;;6.25;59.39;100648.78;5087621;28;20031;-77
2022/02/15 02:49:22;;;;;;;13.90;7.43;;;;;;;6.25;59.95;100651.44;5090322;28;20028;-77
2022/02/15 02:51:47;;;;;;;14.48;7.80;;;;;;;6.25;59.43;100653.28;5101930;28;20542;-77
2022/02/15 02:54:13;;;;;;;11.85;7.15;;;;;;;6.22;59.59;100654.53;5097937;28;20481;-77
2022/02/15 02:56:38;;;;;;;15.90;8.25;;;;;;;6.21;59.50;100654.78;5090184;28;20052;-77
2022/02/15 02:59:03;;;;;;;15.43;8.30;;;;;;;6.22;59.65;100659.88;5095051;28;20104;-77
2022/02/15 03:01:29;;;;;;;14.98;8.50;;;;;;;6.22;59.70;100659.06;5088890;28;20019;-77
2022/02/15 03:03:54;;;;;;;13.20;7.18;;;;;;;6.22;59.73;100653.72;5088305;28;20066;-77
2022/02/15 03:06:21;;;;;;;14.50;7.43;;;;;;;6.23;59.49;100650.84;5087406;28;20076;-77
2022/02/15 03:08:47;;;;;;;13.80;7.65;;;;;;;6.21;59.86;100666.22;5087935;28;20115;-77
2022/02/15 03:11:12;;;;;;;14.50;8.00;;;;;;;6.18;59.87;100663.19;5100655;28;20106;-77
2022/02/15 03:13:38;;;;;;;12.98;7.78;;;;;;;6.16;59.52;100660.75;5083570;28;20028;-77
2022/02/15 03:16:04;;;;;;;16.00;7.28;;;;;;;6.13;59.81;100671.84;5086754;28;20914;-77
2022/02/15 03:18:29;;;;;;;13.65;7.50;;;;;;;6.12;60.12;100675.53;5083601;28;20020;-77
2022/02/15 03:20:55;;;;;;;16.27;8.65;;;;;;;6.11;60.03;100665.13;5086710;28;20030;-77
2022/02/15 03:23:20;;;;;;;15.27;8.25;;;;;;;6.09;60.29;100665.31;5085911;28;20028;-77
2022/02/15 03:25:45;;;;;;;20.13;8.25;;;;;;;6.05;60.48;100672.13;5082933;28;20492;-77
2022/02/15 03:28:11;;;;;;;14.10;7.93;;;;;;;6.02;60.41;100675.22;5096682;28;20039;-78
2022/02/15 03:30:36;;;;;;;17.50;8.15;;;;;;;6.00;60.40;100687.94;5083761;28;20068;-77
2022/02/15 03:33:02;;;;;;;16.58;7.65;;;;;;;5.99;60.80;100692.44;5082844;28;20036;-77
2022/02/15 03:35:27;;;;;;;12.05;7.80;;;;;;;5.98;60.64;100687.34;5087666;28;20027;-77
2022/02/15 03:37:53;;;;;;;16.45;8.52;;;;;;;5.97;60.58;100686.53;5085594;28;20185;-77
2022/02/15 03:40:18;;;;;;;16.13;8.20;;;;;;;5.95;60.91;100695.75;5082387;28;20031;-77
2022/02/15 03:43:05;;;;;;;13.70;7.97;;;;;;;5.94;61.17;100688.81;5086382;28;20024;-77
2022/02/15 03:45:30;;;;;;;12.10;7.60;;;;;;;5.93;61.23;100687.19;5088670;28;20028;-77
2022/02/15 03:47:55;;;;;;;15.82;7.72;;;;;;;5.92;61.03;100696.16;5093054;28;20028;-77
2022/02/15 03:50:21;;;;;;;14.48;7.53;;;;;;;5.90;61.24;100692.91;5086564;28;20397;-77
2022/02/15 03:52:46;;;;;;;14.77;8.63;;;;;;;5.89;61.19;100692.06;5092392;28;20373;-77
2022/02/15 03:55:13;;;;;;;13.05;7.50;;;;;;;5.88;61.17;100689.63;5087274;28;20577;-77
2022/02/15 03:57:38;;;;;;;14.05;7.85;;;;;;;5.86;61.24;100686.38;5086729;28;20058;-77
2022/02/15 04:00:06;;;;;;;14.40;8.38;;;;;;;5.83;61.53;100678.84;5083227;28;20047;-78
2022/02/15 04:02:32;;;;;;;14.27;8.35;;;;;;;5.82;61.47;100687.84;5084616;28;20024;-77
2022/02/15 04:04:58;;;;;;;15.38;7.97;;;;;;;5.80;61.58;100692.59;5085790;28;20024;-77
2022/02/15 04:07:23;;;;;;;14.15;7.85;;;;;;;5.75;61.55;100686.09;5087787;28;20031;-77
2022/02/15 04:09:49;;;;;;;13.32;7.88;;;;;;;5.73;61.47;100689.97;5089504;28;20050;-77
2022/02/15 04:12:14;;;;;;;13.65;7.55;;;;;;;5.69;61.79;100691.44;5087873;28;21647;-77
2022/02/15 04:14:40;;;;;;;14.82;8.43;;;;;;;5.67;61.77;100689.00;5089455;28;20550;-77
2022/02/15 04:17:05;;;;;;;12.32;7.70;;;;;;;5.65;61.95;100692.91;5092167;28;20564;-76
2022/02/15 04:19:31;;;;;;;13.88;8.35;;;;;;;5.61;61.94;100700.50;5090968;28;20032;-77
2022/02/15 04:21:56;;;;;;;15.60;8.10;;;;;;;5.59;61.94;100691.94;5089301;28;20024;-78
2022/02/15 04:24:22;;;;;;;13.18;7.47;;;;;;;5.57;62.15;100696.66;5091545;28;20027;-77
2022/02/15 04:26:48;;;;;;;16.80;8.00;;;;;;;5.56;61.72;100702.16;5093988;28;20020;-77
2022/02/15 04:29:14;;;;;;;14.50;8.80;;;;;;;5.54;62.15;100709.53;5088538;28;20074;-77
2022/02/15 04:31:40;;;;;;;14.07;8.43;;;;;;;5.52;62.12;100704.44;5090313;28;20020;-77
2022/02/15 04:34:05;;;;;;;13.45;8.02;;;;;;;5.51;62.21;100705.47;5090358;28;20516;-78
2022/02/15 04:36:31;;;;;;;16.70;8.32;;;;;;;5.47;62.01;100701.63;5088042;28;20176;-77
2022/02/15 04:38:57;;;;;;;16.85;8.50;;;;;;;5.46;62.01;100700.00;5085659;28;20541;-78
2022/02/15 04:41:22;;;;;;;18.23;8.30;;;;;;;5.45;61.91;100711.66;5090821;28;20469;-77
2022/02/15 04:43:48;;;;;;;11.48;7.65;;;;;;;5.40;61.96;100709.66;5093830;28;20031;-77
2022/02/15 04:46:13;;;;;;;15.93;7.68;;;;;;;5.38;62.12;100717.00;5091562;28;20020;-77
2022/02/15 04:48:39;;;;;;;14.95;7.57;;;;;;;5.35;62.02;100711.31;5092084;28;20110;-77
2022/02/15 04:51:04;;;;;;;12.98;7.80;;;;;;;5.31;62.56;100713.59;5090729;28;20035;-77
2022/02/15 04:53:30;;;;;;;13.00;7.35;;;;;;;5.29;62.22;100712.19;5088027;28;20015;-77
2022/02/15 04:55:55;;;;;;;14.27;8.00;;;;;;;5.26;62.30;100713.41;5084347;28;20637;-78
2022/02/15 04:58:21;;;;;;;14.93;7.85;;;;;;;5.22;62.47;100722.03;5086425;28;20028;-77
2022/02/15 05:00:48;;;;;;;13.60;7.75;;;;;;;5.17;62.68;100720.00;5083497;28;20103;-77
2022/02/15 05:03:14;;;;;;;13.70;8.35;;;;;;;5.14;62.76;100715.94;5085236;28;20167;-77
2022/02/15 05:05:40;;;;;;;14.23;7.85;;;;;;;5.12;62.44;100712.69;5089880;28;20472;-77
2022/02/15 05:08:05;;;;;;;17.20;7.88;;;;;;;5.10;62.50;100720.03;5089629;28;20028;-78
2022/02/15 05:10:30;;;;;;;15.30;7.47;;;;;;;5.09;62.66;100712.28;5089664;28;20030;-77
2022/02/15 05:12:56;;;;;;;11.65;7.28;;;;;;;5.07;62.69;100717.81;5089073;28;20477;-78
2022/02/15 05:15:22;;;;;;;16.52;8.13;;;;;;;5.04;62.94;100710.28;5096465;28;20656;-77
2022/02/15 05:17:47;;;;;;;13.48;7.80;;;;;;;5.02;62.91;100706.19;5102253;27;20024;-77
2022/02/15 05:20:16;;;;;;;14.10;7.82;;;;;;;5.00;62.79;100714.38;5084994;28;20081;-77
2022/02/15 05:22:42;;;;;;;13.10;7.93;;;;;;;4.97;62.86;100717.44;5088550;28;20476;-77
2022/02/15 05:25:10;;;;;;;11.85;7.22;;;;;;;4.97;63.03;100714.78;5082123;28;20031;-77
2022/02/15 05:27:36;;;;;;;14.30;7.93;;;;;;;4.96;62.84;100720.31;5087086;28;20500;-77
2022/02/15 05:30:02;;;;;;;13.50;7.68;;;;;;;4.94;63.24;100723.19;5095357;28;20110;-77
2022/02/15 05:32:28;;;;;;;12.45;7.25;;;;;;;4.93;63.22;100726.88;5080679;28;20115;-77
2022/02/15 05:34:53;;;;;;;14.75;7.50;;;;;;;4.91;63.38;100731.59;5093661;28;20027;-77
2022/02/15 05:37:19;;;;;;;13.32;7.57;;;;;;;4.90;63.22;100729.94;5088583;28;20050;-77
2022/02/15 05:39:44;;;;;;;13.13;7.63;;;;;;;4.88;63.56;100733.84;5091284;28;20641;-78
2022/02/15 05:42:10;;;;;;;13.65;7.75;;;;;;;4.87;63.52;100735.69;5082199;28;20369;-75
2022/02/15 05:44:35;;;;;;;13.77;7.20;;;;;;;4.84;63.30;100742.22;5087744;28;20027;-75
2022/02/15 05:47:01;;;;;;;15.77;7.85;;;;;;;4.84;63.45;100741.41;5090507;28;20458;-75
2022/02/15 05:49:26;;;;;;;11.82;7.47;;;;;;;4.83;63.86;100739.75;5086670;28;20978;-76
2022/02/15 05:51:52;;;;;;;11.57;6.65;;;;;;;4.83;63.68;100745.06;5101199;28;20040;-75
2022/02/15 05:54:18;;;;;;;13.40;8.32;;;;;;;4.82;63.85;100746.91;5080377;28;20111;-75
2022/02/15 05:56:43;;;;;;;10.43;7.18;;;;;;;4.81;64.08;100752.44;5092322;28;20050;-75
2022/02/15 05:59:08;;;;;;;13.68;7.15;;;;;;;4.79;64.25;100757.16;5084796;28;20154;-75
2022/02/15 06:01:34;;;;;;;15.13;7.28;;;;;;;4.79;64.24;100765.09;5085700;28;20028;-75
2022/02/15 06:04:12;;;;;;;16.92;7.63;;;;;;;4.78;64.28;100766.13;5084269;28;20084;-75
2022/02/15 06:06:41;;;;;;;15.55;7.00;;;;;;;4.76;64.72;100766.34;5081233;28;20036;-76
2022/02/15 06:09:07;;;;;;;13.18;7.20;;;;;;;4.77;64.51;100772.47;5082598;28;20020;-75
2022/02/15 06:11:33;;;;;;;10.45;6.85;;;;;;;4.75;64.87;100775.34;5083474;28;20051;-75
2022/02/15 06:13:59;;;;;;;14.20;7.53;;;;;;;4.73;64.82;100776.56;5081061;28;20035;-75
2022/02/15 06:16:25;;;;;;;12.68;6.57;;;;;;;4.72;65.26;100774.94;5083263;28;20440;-74
2022/02/15 06:18:52;;;;;;;14.85;8.07;;;;;;;4.71;65.29;100776.78;5082464;28;20613;-74
2022/02/15 06:21:18;;;;;;;12.40;6.80;;;;;;;4.71;65.64;100776.78;5085911;28;20100;-74
2022/02/15 06:23:43;;;;;;;15.38;7.05;;;;;;;4.71;65.20;100783.94;5082281;28;20082;-75
2022/02/15 06:26:09;;;;;;;15.30;7.53;;;;;;;4.71;65.54;100790.06;5082389;28;20024;-75
2022/02/15 06:28:35;;;;;;;12.70;6.90;;;;;;;4.72;65.39;100793.53;5084697;28;20114;-74
2022/02/15 06:31:00;;;;;;;14.50;6.75;;;;;;;4.72;65.81;100799.66;5082129;28;20359;-73
2022/02/15 06:33:26;;;;;;;13.25;6.60;;;;;;;4.72;65.80;100804.13;5083626;28;20027;-73
2022/02/15 06:35:52;;;;;;;12.65;6.22;;;;;;;4.70;65.91;100801.69;5092362;28;20398;-73
2022/02/15 06:38:17;;;;;;;12.93;6.60;;;;;;;4.71;66.17;100810.47;5082195;28;20028;-73
2022/02/15 06:40:43;;;;;;;13.65;6.82;;;;;;;4.72;66.12;100818.22;5081331;28;20032;-74
2022/02/15 06:43:10;;;;;;;11.48;6.55;;;;;;;4.72;66.27;100820.88;5081645;28;20032;-74
2022/02/15 06:45:36;;;;;;;11.15;6.18;;;;;;;4.73;66.02;100825.16;5084344;28;20409;-73
2022/02/15 06:48:01;;;;;;;12.88;6.97;;;;;;;4.74;66.16;100826.78;5077541;28;20032;-73
2022/02/15 06:50:26;;;;;;;24.15;7.20;;;;;;;4.75;66.34;100832.91;5077444;28;20107;-73
2022/02/15 06:52:52;;;;;;;14.57;7.28;;;;;;;4.75;66.50;100836.38;5080411;28;20074;-73
2022/02/15 06:55:18;;;;;;;14.07;7.15;;;;;;;4.76;66.39;100843.31;5080575;28;20028;-74
2022/02/15 06:57:43;;;;;;;13.98;5.95;;;;;;;4.79;66.64;100842.09;5088216;28;20252;-73
2022/02/15 07:00:09;;;;;;;11.95;6.95;;;;;;;4.79;66.62;100845.56;5088600;28;20024;-73
2022/02/15 07:02:36;;;;;;;10.25;6.50;;;;;;;4.79;66.84;100844.75;5095902;28;20023;-72
2022/02/15 07:05:02;;;;;;;11.63;6.15;;;;;;;4.80;66.66;100852.50;5076472;28;20092;-72
2022/02/15 07:07:27;;;;;;;14.95;6.60;;;;;;;4.80;67.05;100851.69;5076208;28;20027;-72
2022/02/15 07:09:53;;;;;;;13.50;6.50;;;;;;;4.82;67.10;100854.94;5081030;28;20029;-72
2022/02/15 07:12:18;;;;;;;12.82;6.85;;;;;;;4.83;67.31;100856.56;5081066;28;20262;-73
2022/02/15 07:14:44;;;;;;;15.55;6.00;;;;;;;4.84;67.24;100863.50;5080370;28;20388;-72
2022/02/15 07:17:09;;;;;;;11.52;6.38;;;;;;;4.83;67.33;100865.34;5078726;28;20033;-72
2022/02/15 07:19:35;;;;;;;11.50;6.68;;;;;;;4.84;67.51;100874.94;5084705;28;20519;-73
2022/02/15 07:22:00;;;;;;;11.07;5.43;;;;;;;4.86;68.08;100874.75;5082999;28;20401;-72
2022/02/15 07:24:26;;;;;;;10.43;5.70;;;;;;;4.87;68.02;100873.75;5079980;28;20028;-73
2022/02/15 07:26:52;;;;;;;11.93;5.15;;;;;;;4.89;67.95;100871.69;5081599;28;20063;-73
2022/02/15 07:29:18;;;;;;;9.32;5.78;;;;;;;4.92;68.47;100871.28;5081086;28;20035;-73
2022/02/15 07:31:43;;;;;;;10.55;5.90;;;;;;;4.95;68.32;100873.50;5079768;28;20032;-73
2022/02/15 07:34:09;;;;;;;10.98;5.75;;;;;;;4.96;68.40;100872.47;5086487;28;20032;-73
2022/02/15 07:36:34;;;;;;;10.90;5.63;;;;;;;4.97;68.45;100873.28;5086412;28;20060;-73
2022/02/15 07:38:59;;;;;;;10.18;6.00;;;;;;;4.99;68.62;100869.41;5081728;28;20044;-73
2022/02/15 07:41:28;;;;;;;12.50;5.25;;;;;;;5.02;69.22;100870.81;5085037;28;20115;-73
2022/02/15 07:43:54;;;;;;;10.13;4.80;;;;;;;5.04;68.94;100874.13;5085891;28;20024;-74
2022/02/15 07:46:20;;;;;;;12.20;5.60;;;;;;;5.06;68.80;100872.88;5081456;28;20069;-74
2022/02/15 07:48:45;;;;;;;13.18;4.97;;;;;;;5.08;69.05;100881.44;5102158;27;20543;-73
2022/02/15 07:51:12;;;;;;;11.93;5.90;;;;;;;5.11;69.01;100875.72;5099987;28;20485;-73
2022/02/15 07:53:37;;;;;;;10.40;4.88;;;;;;;5.13;68.71;100883.47;5078908;28;20026;-74
2022/02/15 07:56:03;;;;;;;9.70;4.95;;;;;;;5.16;69.33;100886.53;5099416;28;20559;-73
2022/02/15 07:58:29;;;;;;;9.98;4.28;;;;;;;5.22;69.20;100876.09;5078681;28;20039;-73
2022/02/15 08:00:54;;;;;;;8.13;4.72;;;;;;;5.26;69.32;100882.63;5084188;28;20040;-73
2022/02/15 08:03:20;;;;;;;7.95;4.28;;;;;;;5.27;68.90;100886.91;5080361;28;20020;-73
2022/02/15 08:05:46;;;;;;;13.60;5.20;;;;;;;5.31;69.16;100896.91;5081138;28;20020;-74
2022/02/15 08:08:11;;;;;;;9.27;5.10;;;;;;;5.33;69.19;100894.84;5099166;28;20027;-73
2022/02/15 08:10:37;;;;;;;7.32;4.68;;;;;;;5.36;69.35;100888.28;5081838;28;20016;-74
2022/02/15 08:13:05;;;;;;;10.23;4.57;;;;;;;5.41;69.33;100893.81;5088116;28;20036;-74
2022/02/15 08:15:36;;;;;;;10.20;5.25;;;;;;;5.44;69.39;100896.03;5088087;28;20469;-73
2022/02/15 08:18:03;;;;;;;12.77;4.53;;;;;;;5.50;69.56;100899.69;5087572;28;20484;-73
2022/02/15 08:20:30;;;;;;;7.93;4.60;;;;;;;5.54;69.50;100896.41;5089649;28;20028;-74
2022/02/15 08:22:55;;;;;;;7.60;4.28;;;;;;;5.59;69.70;100903.75;5087576;28;20045;-74
2022/02/15 08:25:21;;;;;;;10.10;4.68;;;;;;;5.62;69.90;100901.50;5079354;28;20114;-73
2022/02/15 08:27:47;;;;;;;9.52;4.28;;;;;;;5.67;69.57;100906.16;5086515;28;20397;-73
2022/02/15 08:30:13;;;;;;;10.95;4.20;;;;;;;5.70;69.92;100909.19;5088971;28;20035;-74
2022/02/15 08:32:39;;;;;;;8.63;4.15;;;;;;;5.74;69.88;100907.78;5080680;28;20021;-73
2022/02/15 08:35:05;;;;;;;7.90;4.10;;;;;;;5.79;69.81;100904.47;5087446;28;20032;-73
2022/02/15 08:37:33;;;;;;;7.70;4.18;;;;;;;5.85;70.03;100913.44;5084234;28;20382;-73
2022/02/15 08:40:00;;;;;;;8.27;4.10;;;;;;;5.92;69.85;100922.22;5085626;28;20020;-74
2022/02/15 08:42:26;;;;;;;7.13;3.80;;;;;;;5.96;69.94;100910.97;5085307;28;20031;-73
2022/02/15 08:44:53;;;;;;;10.00;3.75;;;;;;;6.05;70.12;100908.84;5086330;28;20039;-73
2022/02/15 08:47:20;;;;;;;5.50;3.47;;;;;;;6.10;70.00;100917.00;5087401;28;20081;-73
2022/02/15 08:49:47;;;;;;;5.97;3.70;;;;;;;6.17;69.98;100917.78;5104925;27;20081;-73
2022/02/15 08:52:13;;;;;;;9.05;3.90;;;;;;;6.22;69.90;100920.59;5097352;28;20024;-73
2022/02/15 08:54:38;;;;;;;6.75;3.67;;;;;;;6.28;70.19;100925.09;5082396;28;20048;-73
2022/02/15 08:57:05;;;;;;;7.90;4.10;;;;;;;6.36;69.75;100931.97;5086556;28;20016;-73
2022/02/15 08:59:31;;;;;;;7.03;4.00;;;;;;;6.45;69.47;100924.53;5085370;28;20063;-74
2022/02/15 09:01:56;;;;;;;7.13;3.42;;;;;;;6.51;69.25;100923.69;5086755;28;20055;-73
2022/02/15 09:04:22;;;;;;;10.48;3.92;;;;;;;6.55;69.48;100931.00;5089044;28;20439;-73
2022/02/15 09:06:47;;;;;;;10.00;3.35;;;;;;;6.58;69.43;100929.75;5096636;28;20275;-73
2022/02/15 09:09:13;;;;;;;4.80;3.00;;;;;;;6.63;69.62;100924.59;5087152;28;20076;-74
2022/02/15 09:11:40;;;;;;;7.30;3.22;;;;;;;6.71;68.92;100936.84;5084853;28;20027;-73
2022/02/15 09:14:05;;;;;;;5.03;3.10;;;;;;;6.76;68.85;100940.47;5088830;28;20039;-73
2022/02/15 09:16:31;;;;;;;7.03;2.72;;;;;;;6.83;68.72;100935.91;5093189;28;20513;-74
2022/02/15 09:18:57;;;;;;;6.68;2.90;;;;;;;6.91;68.73;100940.13;5087129;28;20115;-74
2022/02/15 09:21:23;;;;;;;10.05;3.55;;;;;;;6.97;69.10;100941.91;5088482;28;20024;-73
2022/02/15 09:23:48;;;;;;;13.00;2.88;;;;;;;7.09;68.65;100944.69;5088298;28;20077;-73
2022/02/15 09:26:14;;;;;;;9.52;4.18;;;;;;;7.20;68.68;100943.97;5085773;28;20488;-73
2022/02/15 09:28:39;;;;;;;7.60;3.78;;;;;;;7.32;68.43;100947.50;5083320;28;20137;-73
2022/02/15 09:31:05;;;;;;;13.60;3.60;;;;;;;7.47;68.12;100945.28;5087004;28;20033;-73
2022/02/15 09:33:31;;;;;;;5.43;3.05;;;;;;;7.62;67.89;100942.25;5090110;28;20028;-73
2022/02/15 09:35:57;;;;;;;5.45;3.10;;;;;;;7.77;67.47;100941.88;5090347;28;20032;-73
2022/02/15 09:38:23;;;;;;;10.05;3.80;;;;;;;7.96;67.75;100943.47;5076455;28;20066;-73
2022/02/15 09:40:49;;;;;;;5.10;2.88;;;;;;;8.12;66.95;100948.16;5087511;28;20031;-73
2022/02/15 09:43:15;;;;;;;7.82;3.45;;;;;;;8.24;66.54;100939.38;5085372;28;20513;-73
2022/02/15 09:45:44;;;;;;;8.45;3.28;;;;;;;8.30;66.28;100949.16;5092080;28;20036;-73
2022/02/15 09:48:10;;;;;;;5.80;2.90;;;;;;;8.46;66.06;100948.53;5086546;28;20035;-73
2022/02/15 09:50:37;;;;;;;5.28;2.65;;;;;;;8.60;65.63;100947.25;5090709;28;20028;-73
2022/02/15 09:53:03;;;;;;;5.35;2.70;;;;;;;8.77;65.34;100940.19;5086304;28;20402;-73
2022/02/15 09:55:28;;;;;;;8.45;3.13;;;;;;;8.90;65.02;100943.69;5078838;28;20024;-73
2022/02/15 09:57:54;;;;;;;10.57;3.10;;;;;;;8.99;64.75;100947.66;5083978;28;20039;-73
2022/02/15 10:00:22;;;;;;;7.35;3.00;;;;;;;9.06;64.35;100953.69;5085538;28;20019;-73
2022/02/15 10:02:51;;;;;;;7.70;3.25;;;;;;;9.06;64.04;100954.50;5084133;28;20042;-73
2022/02/15 10:05:19;;;;;;;6.85;2.78;;;;;;;9.05;63.76;100950.22;5087115;28;20016;-73
2022/02/15 10:07:57;;;;;;;6.43;2.90;;;;;;;9.04;63.48;100953.94;5083686;28;20031;-73
2022/02/15 10:10:34;;;;;;;5.47;2.90;;;;;;;8.94;62.94;100955.53;5082723;28;20036;-73
2022/02/15 10:13:01;;;;;;;8.07;2.60;;;;;;;9.00;63.47;100959.97;5089806;28;20028;-73
2022/02/15 10:15:34;;;;;;;6.63;2.28;;;;;;;8.99;63.27;100966.38;5083367;28;20024;-73
2022/02/15 10:18:25;;;;;;;11.10;2.70;;;;;;;8.94;62.90;100967.03;5091279;28;20374;-73
2022/02/15 10:20:56;;;;;;;8.18;2.25;;;;;;;8.98;62.33;100972.78;5074320;28;20413;-73
2022/02/15 10:23:24;;;;;;;4.57;3.10;;;;;;;9.01;62.82;100974.97;5090287;28;20016;-73
2022/02/15 10:25:52;;;;;;;7.72;2.50;;;;;;;9.02;62.90;100964.06;5087078;28;20103;-73
2022/02/15 10:28:19;;;;;;;5.07;2.97;;;;;;;9.00;62.74;100968.00;5086116;28;20028;-73
2022/02/15 10:30:46;;;;;;;4.82;2.60;;;;;;;9.04;62.67;100969.97;5082683;28;20110;-73
2022/02/15 10:33:12;;;;;;;7.15;3.13;;;;;;;9.00;62.25;100968.00;5084762;28;20035;-73
2022/02/15 10:35:40;;;;;;;7.28;2.75;;;;;;;9.01;62.71;100967.75;5079919;28;20077;-73
2022/02/15 10:38:07;;;;;;;5.60;2.47;;;;;;;9.07;62.51;100971.38;5086046;28;20024;-73
2022/02/15 10:40:34;;;;;;;4.85;2.55;;;;;;;9.02;62.08;100973.94;5090264;28;20032;-73
2022/02/15 10:42:59;;;;;;;9.95;3.08;;;;;;;9.04;62.32;100975.31;5085402;28;20082;-73
2022/02/15 10:45:28;;;;;;;5.07;2.90;;;;;;;9.05;62.32;100976.13;5083528;28;20838;-73
2022/02/15 10:47:53;;;;;;;11.60;3.20;;;;;;;9.10;62.35;100978.91;5083944;28;20031;-73
2022/02/15 10:50:19;;;;;;;4.35;2.90;;;;;;;9.08;62.36;100981.00;5083573;28;20024;-72
2022/02/15 10:52:44;;;;;;;8.13;2.83;;;;;;;9.13;62.18;100988.31;5079703;28;20024;-73
2022/02/15 10:55:11;;;;;;;6.15;3.33;;;;;;;9.14;61.70;100982.75;5090329;28;20036;-73
2022/02/15 10:57:38;;;;;;;5.05;2.78;;;;;;;9.13;61.72;100986.47;5080627;28;20380;-73
2022/02/15 11:00:15;;;;;;;4.80;2.65;;;;;;;9.18;61.93;100980.44;5090195;28;20040;-73
2022/02/15 11:02:41;;;;;;;5.47;2.75;;;;;;;9.27;61.70;100987.84;5083862;28;20115;-73
2022/02/15 11:05:11;;;;;;;4.90;2.50;;;;;;;9.31;61.35;100983.66;5083253;28;20036;-73
2022/02/15 11:07:38;;;;;;;4.63;2.85;;;;;;;9.38;61.10;100987.03;5080096;28;20024;-73
2022/02/15 11:10:25;;;;;;;4.65;2.40;;;;;;;9.36;60.45;100986.47;5082906;28;20031;-73
2022/02/15 11:12:59;;;;;;;4.55;2.55;;;;;;;9.50;60.48;100984.34;5080403;28;20026;-73
2022/02/15 11:15:27;;;;;;;5.50;2.63;;;;;;;9.74;60.37;100995.03;5084807;28;20028;-73
2022/02/15 11:17:54;;;;;;;3.58;2.70;;;;;;;9.79;59.81;100992.44;5086022;28;20486;-73
2022/02/15 11:20:23;;;;;;;4.90;2.83;;;;;;;9.87;59.92;100994.72;5085773;28;20024;-73
2022/02/15 11:22:53;;;;;;;3.65;2.25;;;;;;;9.73;59.35;100999.56;5081679;28;20056;-73
2022/02/15 11:25:34;;;;;;;3.80;2.50;;;;;;;9.80;59.10;100991.38;5083984;28;20016;-73